Time;durP1;ratioP1;P1;durP2;ratioP2;P2;SDS_P1;SDS_P2;PMS_P1;PMS_P2;Temp;Humidity;BMP_temperature;BMP_pressure;BME280_temperature;BME280_humidity;BME280_pressure;Samples;Min_cycle;Max_cycle;Signal;HPM_P1;HPM_P2
2023/09/01 06:00:06;;;;;;;6.97;4.43;;;;;;;;;;5137227;27;20562;-87
2023/09/01 08:44:27;;;;;;;6.30;1.77;;;;;;;;;;5121219;27;1275679;-87
2023/09/01 08:57:53;;;;;;;6.20;2.60;;;;;;;;;;5075749;28;20862;-88
2023/09/01 09:00:37;;;;;;;6.22;1.85;;;;;;;;;;5061187;28;20039;-86
2023/09/01 09:03:22;;;;;;;3.97;1.65;;;;;;;;;;5069939;28;20040;-86
2023/09/01 09:06:06;;;;;;;4.93;1.50;;;;;;;;;;5052181;28;20431;-86
2023/09/01 09:09:03;;;;;;;3.97;1.40;;;;;;;;;;5054724;28;20080;-86
2023/09/01 09:11:55;;;;;;;6.95;1.88;;;;;;;;;;5051474;28;20055;-86
2023/09/01 09:14:46;;;;;;;4.93;1.45;;;;;;;;;;5067164;28;20063;-86
2023/09/01 09:17:42;;;;;;;9.05;1.50;;;;;;;;;;5066107;28;20443;-86
2023/09/01 09:20:36;;;;;;;5.85;2.15;;;;;;;;;;5050224;28;20040;-86
2023/09/01 09:23:21;;;;;;;5.90;2.30;;;;;;;;;;5050633;28;20040;-86
2023/09/01 09:26:05;;;;;;;5.50;1.75;;;;;;;;;;5059640;28;20044;-86
2023/09/01 09:28:50;;;;;;;8.07;2.10;;;;;;;;;;5066195;28;20036;-86
2023/09/01 09:31:44;;;;;;;4.70;1.67;;;;;;;;;;5060849;28;20036;-86
2023/09/01 09:34:29;;;;;;;7.68;1.90;;;;;;;;;;5056570;28;20043;-87
2023/09/01 09:37:17;;;;;;;7.78;2.45;;;;;;;;;;5067104;28;20420;-88
2023/09/01 09:40:14;;;;;;;3.90;1.55;;;;;;;;;;5053080;28;20084;-86
2023/09/01 09:42:59;;;;;;;3.67;1.40;;;;;;;;;;5067569;28;20484;-88
2023/09/01 09:45:45;;;;;;;4.78;1.30;;;;;;;;;;5067465;28;20032;-90
2023/09/01 09:48:30;;;;;;;5.13;1.90;;;;;;;;;;5067421;28;20039;-88
2023/09/01 09:51:16;;;;;;;7.00;2.13;;;;;;;;;;5052147;28;20075;-87
2023/09/01 09:54:02;;;;;;;4.40;1.55;;;;;;;;;;5066720;28;20039;-88
2023/09/01 09:56:48;;;;;;;4.88;1.52;;;;;;;;;;5056402;28;20508;-87
2023/09/01 09:59:35;;;;;;;8.32;2.28;;;;;;;;;;5067024;28;20638;-87
2023/09/01 10:02:20;;;;;;;6.75;2.13;;;;;;;;;;5065576;28;20043;-86
2023/09/01 10:05:05;;;;;;;8.20;2.10;;;;;;;;;;5066450;28;20094;-87
2023/09/01 10:07:51;;;;;;;4.40;2.00;;;;;;;;;;5061787;28;20064;-87
2023/09/01 10:10:37;;;;;;;4.38;1.92;;;;;;;;;;5053675;28;20044;-87
2023/09/01 10:13:22;;;;;;;10.70;2.65;;;;;;;;;;5051568;28;20044;-86
2023/09/01 10:16:07;;;;;;;5.57;2.30;;;;;;;;;;5047840;28;20098;-87
2023/09/01 10:18:53;;;;;;;5.10;2.33;;;;;;;;;;5045803;28;20083;-87
2023/09/01 10:21:40;;;;;;;11.65;2.70;;;;;;;;;;5033422;28;20528;-87
2023/09/01 10:24:24;;;;;;;9.02;3.75;;;;;;;;;;5033483;28;20393;-88
2023/09/01 10:27:09;;;;;;;8.43;3.47;;;;;;;;;;5046227;28;20054;-87
2023/09/01 10:29:54;;;;;;;11.50;3.17;;;;;;;;;;5037269;28;20117;-87
2023/09/01 10:32:39;;;;;;;5.07;3.10;;;;;;;;;;5045137;28;20816;-88
2023/09/01 10:35:42;;;;;;;7.15;3.03;;;18.20;99.90;;;;;;5045807;28;20095;-88
2023/09/01 10:38:32;;;;;;;15.80;5.13;;;;;;;;;;5041320;28;20072;-88
2023/09/01 10:41:37;;;;;;;10.90;4.05;;;;;;;;;;5041095;28;20083;-86
2023/09/01 10:44:22;;;;;;;6.15;3.67;;;;;;;;;;5034714;28;20448;-89
2023/09/01 10:47:31;;;;;;;7.72;4.07;;;18.40;99.90;;;;;;5040079;28;20162;-87
2023/09/01 10:50:16;;;;;;;8.27;3.75;;;;;;;;;;5033537;28;20036;-88
2023/09/01 10:53:21;;;;;;;12.20;4.00;;;;;;;;;;5047365;28;20047;-89
2023/09/01 10:56:07;;;;;;;8.88;4.22;;;;;;;;;;5044230;28;20456;-89
2023/09/01 10:58:52;;;;;;;8.48;4.15;;;;;;;;;;5040220;28;20040;-89
2023/09/01 11:01:38;;;;;;;21.85;6.10;;;;;;;;;;5036211;28;20493;-89
2023/09/01 11:04:24;;;;;;;8.73;4.30;;;;;;;;;;5032707;28;20121;-88
2023/09/01 11:07:08;;;;;;;10.13;3.67;;;;;;;;;;5035963;28;20470;-89
2023/09/01 12:10:21;;;;;;;10.30;6.10;;;;;;;;;;5068497;27;20508;-87
2023/09/01 12:13:07;;;;;;;10.45;6.45;;;;;;;;;;5067456;28;20396;-87
2023/09/01 12:16:02;;;;;;;10.68;7.22;;;;;;;;;;5068588;28;20051;-89
2023/09/01 12:18:47;;;;;;;12.13;7.82;;;;;;;;;;5065823;28;20078;-87
2023/09/01 12:21:32;;;;;;;11.77;7.47;;;;;;;;;;5068347;28;20127;-88
2023/09/01 12:24:16;;;;;;;11.65;7.15;;;;;;;;;;5068516;28;20121;-89
2023/09/01 12:27:01;;;;;;;11.48;7.47;;;;;;;;;;5067775;28;20047;-90
2023/09/01 12:29:45;;;;;;;12.52;7.80;;;;;;;;;;5067875;28;20074;-88
2023/09/01 12:32:30;;;;;;;11.77;7.45;;;;;;;;;;5068332;28;20032;-89
2023/09/01 12:35:14;;;;;;;13.35;7.70;;;;;;;;;;5068347;28;20047;-88
2023/09/01 12:37:59;;;;;;;13.18;8.15;;;;;;;;;;5068054;28;20095;-88
2023/09/01 12:40:44;;;;;;;14.98;7.45;;;;;;;;;;5067110;28;20396;-89
2023/09/01 12:55:54;;;;;;;17.30;8.20;;;;;;;;;;5076872;27;20506;-89
2023/09/01 12:58:40;;;;;;;12.98;7.75;;;;;;;;;;5074548;28;20074;-86
2023/09/01 13:01:25;;;;;;;11.23;8.25;;;;;;;;;;5083618;28;20409;-91
2023/09/01 13:04:09;;;;;;;14.40;7.75;;;;;;;;;;5079507;28;20115;-87
2023/09/01 13:06:54;;;;;;;14.88;8.05;;;;;;;;;;5074562;28;20043;-88
2023/09/01 13:09:39;;;;;;;14.13;7.65;;;;;;;;;;5098833;28;20031;-88
2023/09/01 13:12:23;;;;;;;16.55;8.50;;;;;;;;;;5072315;28;20086;-88
2023/09/01 13:15:08;;;;;;;20.45;9.13;;;;;;;;;;5073753;28;20059;-87
2023/09/01 13:17:53;;;;;;;18.65;9.35;;;;;;;;;;5082419;28;20581;-86
2023/09/01 13:20:38;;;;;;;12.60;7.45;;;;;;;;;;5072833;28;20098;-87
2023/09/01 13:23:23;;;;;;;11.57;7.13;;;;;;;;;;5075745;28;20067;-87
2023/09/01 13:26:07;;;;;;;12.70;7.38;;;;;;;;;;5103268;28;20151;-84
2023/09/01 13:28:52;;;;;;;14.68;7.25;;;;;;;;;;5069747;28;20040;-87
2023/09/01 13:31:36;;;;;;;18.17;8.20;;;;;;;;;;5106969;28;20093;-86
2023/09/01 13:34:21;;;;;;;9.90;5.75;;;;;;;;;;5087028;28;20067;-86
2023/09/01 13:37:11;;;;;;;16.10;6.28;;;;;;;;;;5080707;28;20137;-88
2023/09/01 13:39:55;;;;;;;13.68;6.38;;;;;;;;;;5076465;28;20391;-89
2023/09/01 13:42:40;;;;;;;13.00;6.40;;;;;;;;;;5114014;28;20507;-88
2023/09/01 13:45:26;;;;;;;12.18;5.82;;;;;;;;;;5087171;28;20071;-87
2023/09/01 13:48:10;;;;;;;10.27;6.28;;;;;;;;;;5074346;28;20074;-87
2023/09/01 13:50:56;;;;;;;9.65;6.32;;;;;;;;;;5073282;28;20074;-88
2023/09/01 13:53:40;;;;;;;10.35;5.28;;;;;;;;;;5098076;28;20086;-88
2023/09/01 13:56:25;;;;;;;10.52;5.60;;;;;;;;;;5073560;28;20503;-86
2023/09/01 13:59:10;;;;;;;10.40;6.18;;;;;;;;;;5079617;28;20098;-87
2023/09/01 14:01:55;;;;;;;12.73;6.97;;;;;;;;;;5075418;28;20059;-84
2023/09/01 14:04:39;;;;;;;9.15;5.05;;;;;;;;;;5086277;28;20146;-85
2023/09/01 14:07:24;;;;;;;9.43;4.93;;;;;;;;;;5073118;28;20039;-86
2023/09/01 14:10:08;;;;;;;8.48;4.13;;;;;;;;;;5087059;28;20118;-85
2023/09/01 14:12:53;;;;;;;6.90;3.78;;;;;;;;;;5071948;28;20086;-86
2023/09/01 14:15:38;;;;;;;6.13;3.95;;;;;;;;;;5073488;28;20396;-86
2023/09/01 14:18:23;;;;;;;7.28;5.10;;;;;;;;;;5073984;28;20141;-86
2023/09/01 14:21:08;;;;;;;7.68;3.92;;;;;;;;;;5100341;28;20404;-86
2023/09/01 14:23:52;;;;;;;10.13;5.78;;;;;;;;;;5100566;28;20462;-86
2023/09/01 14:26:37;;;;;;;6.53;3.92;;;;;;;;;;5073114;28;20067;-86
2023/09/01 14:29:21;;;;;;;7.32;4.68;;;;;;;;;;5101638;28;20082;-86
2023/09/01 14:32:06;;;;;;;10.95;5.00;;;;;;;;;;5073135;28;20833;-87
2023/09/01 14:34:50;;;;;;;8.88;5.30;;;;;;;;;;5067481;28;20043;-88
2023/09/01 14:37:35;;;;;;;7.53;4.60;;;;;;;;;;5062390;28;20036;-88
2023/09/01 14:40:20;;;;;;;9.10;5.70;;;;;;;;;;5061906;28;20071;-88
2023/09/01 14:43:04;;;;;;;10.70;5.53;;;;;;;;;;5067815;28;20071;-87
2023/09/01 14:45:49;;;;;;;8.18;4.43;;;;;;;;;;5068166;28;20039;-87
2023/09/01 14:48:34;;;;;;;7.43;3.92;;;;;;;;;;5060357;28;20116;-87
2023/09/01 14:51:18;;;;;;;6.07;4.03;;;;;;;;;;5064482;28;20040;-87
2023/09/01 14:54:05;;;;;;;17.85;6.72;;;;;;;;;;5067908;28;20067;-87
2023/09/01 14:56:51;;;;;;;10.23;5.03;;;;;;;;;;5067858;28;20051;-86
2023/09/01 14:59:35;;;;;;;6.57;4.35;;;;;;;;;;5065201;28;20040;-86
2023/09/01 15:02:20;;;;;;;7.90;4.05;;;;;;;;;;5064406;28;20048;-86
2023/09/01 15:05:05;;;;;;;12.52;6.05;;;;;;;;;;5093971;28;20048;-86
2023/09/01 15:07:49;;;;;;;8.65;4.38;;;;;;;;;;5073120;28;20495;-86
2023/09/01 15:10:34;;;;;;;7.22;4.30;;;;;;;;;;5058968;28;20039;-86
2023/09/01 15:13:22;;;;;;;11.27;5.15;;;;;;;;;;5083398;28;20203;-87
2023/09/01 15:16:07;;;;;;;17.88;6.18;;;;;;;;;;5071917;28;20534;-87
2023/09/01 15:18:51;;;;;;;5.95;4.07;;;;;;;;;;5053174;28;20079;-87
2023/09/01 15:21:36;;;;;;;11.15;4.90;;;;;;;;;;5070850;28;20060;-88
2023/09/01 15:24:20;;;;;;;7.82;4.25;;;;;;;;;;5052948;28;20091;-89
2023/09/01 15:27:05;;;;;;;17.17;6.55;;;;;;;;;;5064687;28;20056;-89
2023/09/01 15:29:50;;;;;;;9.27;4.47;;;;;;;;;;5059296;28;20048;-90
2023/09/01 15:32:34;;;;;;;12.32;4.75;;;;;;;;;;5065753;28;20039;-88
2023/09/01 15:35:22;;;;;;;16.52;6.38;;;;;;;;;;5068563;28;20040;-87
2023/09/01 15:38:07;;;;;;;18.17;7.03;;;;;;;;;;5069131;28;20035;-88
2023/09/01 15:40:52;;;;;;;13.43;5.57;;;;;;;;;;5066441;28;20068;-89
2023/09/01 15:43:37;;;;;;;10.35;4.75;;;;;;;;;;5067169;28;20031;-88
2023/09/01 15:46:21;;;;;;;16.35;6.18;;;;;;;;;;5065165;28;20656;-88
2023/09/01 15:49:06;;;;;;;13.60;5.35;;;;;;;;;;5082122;28;20113;-87
2023/09/01 15:51:51;;;;;;;9.32;4.47;;;;;;;;;;5058037;28;20043;-86
2023/09/01 15:54:35;;;;;;;15.45;5.40;;;;;;;;;;5091575;28;20776;-87
